Time;durP1;ratioP1;P1;durP2;ratioP2;P2;SDS_P1;SDS_P2;PMS_P1;PMS_P2;Temp;Humidity;BMP_temperature;BMP_pressure;BME280_temperature;BME280_humidity;BME280_pressure;Samples;Min_cycle;Max_cycle;Signal;HPM_P1;HPM_P2
2022/11/17 00:00:25;;;;;;;29.25;20.08;;;7.30;99.90;;;;;;4977015;28;20117;-78
2022/11/17 00:02:52;;;;;;;41.58;22.90;;;7.30;99.90;;;;;;4958743;28;20496;-78
2022/11/17 00:05:19;;;;;;;34.03;18.85;;;7.30;99.90;;;;;;4973514;28;20045;-78
2022/11/17 00:07:47;;;;;;;39.03;22.40;;;7.20;99.90;;;;;;4994818;28;20534;-77
2022/11/17 00:10:15;;;;;;;38.60;21.92;;;7.30;99.90;;;;;;4977807;28;20045;-78
2022/11/17 00:15:28;;;;;;;33.40;21.65;;;7.20;99.90;;;;;;4988595;28;20046;-76
2022/11/17 00:21:17;;;;;;;33.40;21.10;;;7.20;99.90;;;;;;4961888;28;20126;-76
2022/11/17 00:23:45;;;;;;;38.15;24.48;;;7.20;99.90;;;;;;4990663;28;20052;-77
2022/11/17 00:26:14;;;;;;;40.60;23.80;;;7.20;99.90;;;;;;4975137;28;20068;-76
2022/11/17 00:28:41;;;;;;;46.42;24.52;;;7.20;99.90;;;;;;4978615;28;20045;-76
2022/11/17 00:34:04;;;;;;;36.60;22.65;;;7.20;99.90;;;;;;4981241;28;20108;-76
2022/11/17 00:36:39;;;;;;;39.95;24.02;;;7.20;99.90;;;;;;4997435;28;20083;-77
2022/11/17 00:39:06;;;;;;;;;;;7.20;99.90;;;;;;4976311;28;20038;-76
2022/11/17 00:41:34;;;;;;;35.58;20.80;;;7.20;99.90;;;;;;4994471;28;19928;-76
2022/11/17 00:44:01;;;;;;;38.80;24.05;;;7.30;99.90;;;;;;4986753;28;20052;-77
2022/11/17 00:46:28;;;;;;;38.55;23.02;;;7.30;99.90;;;;;;4980749;28;20404;-76
2022/11/17 00:48:54;;;;;;;39.10;22.08;;;7.30;99.90;;;;;;4994832;28;20042;-76
2022/11/17 00:51:22;;;;;;;38.25;22.83;;;7.30;99.90;;;;;;4967943;28;20042;-76
2022/11/17 00:53:50;;;;;;;43.80;22.40;;;7.30;99.90;;;;;;4998159;28;20070;-76
2022/11/17 00:56:17;;;;;;;37.80;20.77;;;7.30;99.90;;;;;;4973835;28;20134;-76
2022/11/17 00:58:44;;;;;;;42.03;24.65;;;7.30;99.90;;;;;;4983195;28;20060;-76
2022/11/17 01:01:10;;;;;;;39.63;23.58;;;7.30;99.90;;;;;;4995425;28;20523;-76
2022/11/17 01:03:37;;;;;;;39.90;23.48;;;7.30;99.90;;;;;;4981995;28;20052;-76
2022/11/17 01:06:10;;;;;;;34.22;21.83;;;7.20;99.90;;;;;;4979569;28;20058;-76
2022/11/17 01:08:37;;;;;;;44.75;23.05;;;7.30;99.90;;;;;;4976753;28;20066;-76
2022/11/17 01:11:06;;;;;;;41.10;24.83;;;7.30;99.90;;;;;;4963291;28;20046;-76
2022/11/17 01:13:33;;;;;;;34.03;22.25;;;7.30;99.90;;;;;;4982592;28;20069;-77
2022/11/17 01:16:06;;;;;;;33.58;20.90;;;7.30;99.90;;;;;;4982660;28;20038;-77
2022/11/17 01:18:34;;;;;;;38.53;21.70;;;7.30;99.90;;;;;;4999119;28;20046;-76
2022/11/17 01:21:10;;;;;;;30.77;19.15;;;7.30;99.90;;;;;;4994522;28;20069;-77
2022/11/17 01:23:38;;;;;;;36.58;20.25;;;7.30;99.90;;;;;;4968383;28;20049;-76
2022/11/17 01:26:09;;;;;;;33.72;20.48;;;7.30;99.90;;;;;;4990351;28;20496;-76
2022/11/17 01:28:36;;;;;;;29.58;18.13;;;7.30;99.90;;;;;;5001003;28;20876;-76
2022/11/17 01:31:17;;;;;;;31.55;17.42;;;7.30;99.90;;;;;;4975599;28;20034;-76
2022/11/17 01:33:46;;;;;;;27.52;16.83;;;7.30;99.90;;;;;;4994260;28;20528;-76
2022/11/17 01:36:19;;;;;;;37.70;22.40;;;7.30;99.90;;;;;;4979404;28;20065;-77
2022/11/17 01:38:46;;;;;;;33.95;21.60;;;7.30;99.90;;;;;;4978114;28;20050;-77
2022/11/17 01:41:15;;;;;;;36.17;20.58;;;7.30;99.90;;;;;;4977074;28;20057;-76
2022/11/17 01:43:48;;;;;;;35.53;22.00;;;7.30;99.90;;;;;;4997879;28;20050;-76
2022/11/17 01:46:17;;;;;;;38.47;24.30;;;7.30;99.90;;;;;;4999476;28;20066;-76
2022/11/17 01:48:46;;;;;;;36.67;22.42;;;7.30;99.90;;;;;;4976713;28;20037;-76
2022/11/17 01:51:14;;;;;;;35.38;21.98;;;7.30;99.90;;;;;;4979670;28;20133;-76
2022/11/17 01:53:44;;;;;;;36.55;23.20;;;7.20;99.90;;;;;;4965923;28;20038;-76
2022/11/17 01:56:17;;;;;;;30.02;18.83;;;7.30;99.90;;;;;;4994960;28;20407;-76
2022/11/17 01:58:53;;;;;;;33.35;20.73;;;7.20;99.90;;;;;;4979127;28;20045;-76
2022/11/17 02:01:20;;;;;;;33.03;20.40;;;7.20;99.90;;;;;;4967430;28;20483;-76
2022/11/17 02:03:48;;;;;;;44.15;25.08;;;7.20;99.90;;;;;;4975480;28;20053;-76
2022/11/17 02:06:22;;;;;;;30.45;19.75;;;7.20;99.90;;;;;;4960509;28;20219;-76
2022/11/17 02:08:51;;;;;;;38.80;23.02;;;7.20;99.90;;;;;;4977719;28;20711;-76
2022/11/17 02:11:19;;;;;;;43.45;24.20;;;7.20;99.90;;;;;;4964195;28;20034;-76
2022/11/17 02:13:47;;;;;;;37.17;21.63;;;7.30;99.90;;;;;;4972182;28;20160;-76
2022/11/17 02:16:15;;;;;;;38.42;22.77;;;7.20;99.90;;;;;;4974783;28;20474;-76
2022/11/17 02:18:42;;;;;;;41.50;23.73;;;7.20;99.90;;;;;;4981759;28;20535;-76
2022/11/17 02:22:04;;;;;;;37.95;22.88;;;7.30;99.90;;;;;;4980069;28;20052;-76
2022/11/17 02:24:49;;;;;;;38.17;23.58;;;7.30;99.90;;;;;;4936845;28;20046;-76
2022/11/17 02:27:47;;;;;;;31.63;18.45;;;7.30;99.90;;;;;;4974853;28;20038;-76
2022/11/17 02:30:17;;;;;;;36.58;22.40;;;7.30;99.90;;;;;;4988658;28;21102;-77
2022/11/17 02:32:56;;;;;;;36.13;20.42;;;7.30;99.90;;;;;;4986401;28;20141;-76
2022/11/17 02:35:50;;;;;;;38.25;24.10;;;7.20;99.90;;;;;;4987900;28;20033;-76
2022/11/17 02:38:38;;;;;;;33.90;19.60;;;7.20;99.90;;;;;;4971787;28;20046;-76
2022/11/17 02:41:17;;;;;;;44.13;22.48;;;7.20;99.90;;;;;;4977495;28;20512;-76
2022/11/17 02:44:04;;;;;;;37.65;21.13;;;7.20;99.90;;;;;;4977577;28;20052;-76
2022/11/17 02:46:44;;;;;;;29.27;19.20;;;7.20;99.90;;;;;;4984015;28;20084;-76
2022/11/17 02:49:24;;;;;;;35.55;19.88;;;7.20;99.90;;;;;;4987807;28;20052;-76
2022/11/17 02:51:55;;;;;;;30.02;19.77;;;7.20;99.90;;;;;;4976490;28;20046;-76
2022/11/17 02:54:23;;;;;;;32.53;21.05;;;7.20;99.90;;;;;;4965947;28;20042;-77
2022/11/17 02:56:50;;;;;;;31.58;21.17;;;7.20;99.90;;;;;;4978899;28;20038;-77
2022/11/17 02:59:20;;;;;;;40.35;23.02;;;7.20;99.90;;;;;;4979623;28;20038;-77
2022/11/17 03:02:09;;;;;;;36.33;22.52;;;7.20;99.90;;;;;;4976791;28;20414;-78
2022/11/17 03:05:02;;;;;;;36.92;23.73;;;7.20;99.90;;;;;;4953897;28;20053;-76
2022/11/17 03:07:35;;;;;;;39.67;24.17;;;7.20;99.90;;;;;;4972478;28;20046;-77
2022/11/17 03:10:20;;;;;;;29.70;21.58;;;7.30;99.90;;;;;;4976337;28;20050;-76
2022/11/17 03:13:12;;;;;;;24.67;18.00;;;7.20;99.90;;;;;;4970843;28;20047;-76
2022/11/17 03:15:54;;;;;;;39.88;21.27;;;7.20;99.90;;;;;;4974976;28;20048;-77
2022/11/17 03:18:34;;;;;;;29.73;21.23;;;7.20;99.90;;;;;;4982306;28;20045;-76
2022/11/17 03:21:15;;;;;;;22.90;18.40;;;7.20;99.90;;;;;;4976396;28;20081;-76
2022/11/17 03:23:49;;;;;;;29.88;20.27;;;7.20;99.90;;;;;;4971878;28;20046;-77
2022/11/17 03:26:23;;;;;;;30.13;21.43;;;7.20;99.90;;;;;;4973983;28;20052;-77
2022/11/17 03:28:51;;;;;;;26.02;19.08;;;7.20;99.90;;;;;;4970343;28;20042;-78
2022/11/17 03:31:19;;;;;;;27.85;18.77;;;7.20;99.90;;;;;;4964691;28;20045;-76
2022/11/17 03:33:49;;;;;;;29.92;20.48;;;7.20;99.90;;;;;;4979266;28;20650;-77
2022/11/17 03:36:21;;;;;;;27.98;19.60;;;7.20;99.90;;;;;;4958504;28;20045;-77
2022/11/17 03:38:57;;;;;;;27.67;19.83;;;7.20;99.90;;;;;;4973434;28;20042;-77
2022/11/17 03:41:27;;;;;;;26.02;17.25;;;7.20;99.90;;;;;;4990673;28;20066;-77
2022/11/17 03:43:56;;;;;;;28.20;18.83;;;7.20;99.90;;;;;;4989712;28;20061;-76
2022/11/17 03:46:27;;;;;;;28.23;19.63;;;7.20;99.90;;;;;;4978887;28;20562;-76
2022/11/17 03:49:13;;;;;;;24.50;15.02;;;7.20;99.90;;;;;;4959417;28;20053;-77
2022/11/17 03:51:40;;;;;;;34.55;21.55;;;7.20;99.90;;;;;;4991327;28;20528;-76
2022/11/17 03:54:08;;;;;;;28.65;18.98;;;7.20;99.90;;;;;;4970139;28;20381;-78
2022/11/17 03:57:00;;;;;;;31.30;20.98;;;7.20;99.90;;;;;;4966499;28;20418;-77
2022/11/17 03:59:41;;;;;;;27.60;19.33;;;7.20;99.90;;;;;;4954239;28;20157;-77
2022/11/17 04:02:15;;;;;;;27.77;18.98;;;7.20;99.90;;;;;;4956118;28;20058;-76
2022/11/17 04:07:27;;;;;;;35.70;21.92;;;7.20;99.90;;;;;;4966660;28;20634;-75
2022/11/17 04:09:54;;;;;;;27.00;18.70;;;7.20;99.90;;;;;;4970143;28;20103;-76
2022/11/17 04:17:51;;;;;;;;;;;7.10;99.90;;;;;;4990816;28;20053;-76
2022/11/17 04:20:18;;;;;;;31.95;20.80;;;7.10;99.90;;;;;;4976372;28;19957;-75
2022/11/17 04:22:44;;;;;;;28.83;20.02;;;7.10;99.90;;;;;;4991731;28;20033;-76
2022/11/17 04:28:35;;;;;;;22.30;15.20;;;7.10;99.90;;;;;;4974298;28;20144;-76
2022/11/17 04:30:43;;;;;;;25.02;17.92;;;7.00;99.90;;;;;;4978211;28;20042;-76
2022/11/17 04:33:09;;;;;;;26.58;17.13;;;7.00;99.90;;;;;;4975746;28;20034;-76
2022/11/17 04:35:36;;;;;;;21.95;14.70;;;7.00;99.90;;;;;;4972518;28;20061;-76
2022/11/17 04:38:03;;;;;;;28.90;19.80;;;6.90;99.90;;;;;;4989766;28;20043;-75
2022/11/17 04:41:52;;;;;;;27.73;19.45;;;7.00;99.90;;;;;;4978392;28;20038;-76
2022/11/17 04:43:16;;;;;;;26.85;16.95;;;6.90;99.90;;;;;;4976585;28;20500;-75
2022/11/17 04:45:43;;;;;;;26.70;16.67;;;6.90;99.90;;;;;;4974506;28;20045;-76
2022/11/17 04:48:09;;;;;;;32.67;19.05;;;6.90;99.90;;;;;;4974016;28;20606;-77
2022/11/17 04:50:36;;;;;;;28.17;17.65;;;6.80;99.90;;;;;;4963562;28;20042;-77
2022/11/17 04:53:02;;;;;;;29.58;18.95;;;6.90;99.90;;;;;;4969993;28;20043;-76
2022/11/17 04:55:31;;;;;;;25.05;16.92;;;6.80;99.90;;;;;;4967726;28;20061;-76
2022/11/17 04:57:57;;;;;;;33.45;21.23;;;6.80;99.90;;;;;;4973870;28;20081;-77
2022/11/17 05:00:25;;;;;;;30.45;18.88;;;6.90;99.90;;;;;;4975879;28;20436;-76
2022/11/17 05:02:52;;;;;;;27.65;16.80;;;6.80;99.90;;;;;;4975634;28;20057;-76
2022/11/17 05:05:18;;;;;;;35.78;20.83;;;6.80;99.90;;;;;;4977792;28;20145;-77
2022/11/17 05:07:45;;;;;;;33.50;22.02;;;6.80;99.90;;;;;;4971930;28;20041;-76
2022/11/17 05:10:13;;;;;;;24.58;15.93;;;6.80;99.90;;;;;;4976617;28;20499;-76
2022/11/17 05:13:25;;;;;;;36.95;22.05;;;6.80;99.90;;;;;;4947626;28;20102;-76
2022/11/17 05:18:29;;;;;;;33.10;19.33;;;6.80;99.90;;;;;;4922361;29;20043;-77
2022/11/17 05:21:01;;;;;;;37.25;21.63;;;6.70;99.90;;;;;;4976755;28;20065;-76
2022/11/17 05:26:13;;;;;;;35.15;22.02;;;6.70;99.90;;;;;;4969622;28;20499;-77
2022/11/17 05:28:39;;;;;;;34.90;17.40;;;6.70;99.90;;;;;;4971090;28;20038;-77
2022/11/17 05:31:06;;;;;;;35.70;20.55;;;6.70;99.90;;;;;;4981594;28;20579;-77
2022/11/17 05:33:33;;;;;;;31.38;18.85;;;6.70;99.90;;;;;;4978342;28;20411;-77
2022/11/17 05:36:04;;;;;;;33.90;20.85;;;6.70;99.90;;;;;;4982531;28;20061;-77
2022/11/17 05:38:31;;;;;;;27.65;15.20;;;6.70;99.90;;;;;;4977667;28;20041;-77
2022/11/17 05:40:59;;;;;;;27.55;16.00;;;6.70;99.90;;;;;;4955655;28;20050;-77
2022/11/17 05:43:25;;;;;;;33.80;18.80;;;6.70;99.90;;;;;;4975789;28;20056;-77
2022/11/17 05:45:52;;;;;;;27.52;17.10;;;6.70;99.90;;;;;;4974381;28;20723;-77
2022/11/17 05:48:19;;;;;;;31.60;18.02;;;6.70;99.90;;;;;;4973895;28;20584;-78
2022/11/17 05:50:46;;;;;;;31.45;18.90;;;6.70;99.90;;;;;;4980233;28;20037;-77
2022/11/17 05:53:12;;;;;;;23.63;14.55;;;6.70;99.90;;;;;;4978026;28;20695;-77
2022/11/17 05:55:39;;;;;;;32.08;16.75;;;6.70;99.90;;;;;;4967583;28;20034;-77
2022/11/17 05:58:25;;;;;;;27.90;18.33;;;6.70;99.90;;;;;;4957802;28;20058;-77
2022/11/17 06:00:53;;;;;;;19.27;12.90;;;6.70;99.90;;;;;;4963646;28;20134;-77
2022/11/17 06:03:27;;;;;;;20.50;13.27;;;6.60;99.90;;;;;;4972569;28;20299;-76
2022/11/17 06:05:54;;;;;;;21.13;15.47;;;6.60;99.90;;;;;;4969742;28;20042;-77
2022/11/17 06:08:22;;;;;;;21.17;14.07;;;6.60;99.90;;;;;;4953429;28;20074;-77
2022/11/17 06:10:49;;;;;;;26.55;16.05;;;6.60;99.90;;;;;;4968513;28;20416;-77
2022/11/17 06:13:16;;;;;;;25.65;16.55;;;6.60;99.90;;;;;;4986682;28;20629;-76
2022/11/17 06:15:42;;;;;;;22.83;14.80;;;6.60;99.90;;;;;;4953950;28;20527;-77
2022/11/17 06:18:13;;;;;;;19.83;12.70;;;6.60;99.90;;;;;;4962412;28;20042;-77
2022/11/17 06:20:47;;;;;;;21.70;13.85;;;6.60;99.90;;;;;;4965701;28;20057;-77
2022/11/17 06:23:16;;;;;;;21.67;13.48;;;6.60;99.90;;;;;;4981611;28;20050;-77
2022/11/17 06:25:43;;;;;;;24.88;14.27;;;6.60;99.90;;;;;;4995430;28;20045;-77
2022/11/17 06:28:13;;;;;;;25.00;15.77;;;6.60;99.90;;;;;;4953273;28;20132;-77
2022/11/17 06:30:40;;;;;;;19.25;13.55;;;6.60;99.90;;;;;;4991487;28;20035;-76
2022/11/17 06:33:11;;;;;;;24.13;14.93;;;6.60;99.90;;;;;;4970641;28;20137;-77
2022/11/17 06:35:39;;;;;;;25.77;14.38;;;6.60;99.90;;;;;;4965700;28;20042;-76
2022/11/17 06:38:06;;;;;;;23.52;13.65;;;6.60;99.90;;;;;;4967290;28;20041;-77
2022/11/17 06:40:32;;;;;;;20.95;13.43;;;6.60;99.90;;;;;;4982405;28;20053;-76
2022/11/17 06:43:08;;;;;;;21.30;13.90;;;6.60;99.90;;;;;;4967104;28;20046;-75
2022/11/17 06:45:36;;;;;;;23.00;14.82;;;6.50;99.90;;;;;;4976138;28;20060;-76
2022/11/17 06:48:04;;;;;;;17.95;12.25;;;6.50;99.90;;;;;;4980834;28;20046;-77
2022/11/17 06:50:31;;;;;;;14.02;10.65;;;6.50;99.90;;;;;;4980299;28;20042;-75
2022/11/17 06:53:04;;;;;;;18.40;13.50;;;6.50;99.90;;;;;;4968374;28;20045;-77
2022/11/17 06:55:31;;;;;;;18.73;12.35;;;6.50;99.90;;;;;;4962994;28;20069;-77
2022/11/17 06:58:00;;;;;;;21.75;12.50;;;6.50;99.90;;;;;;4963300;28;20057;-77
2022/11/17 07:00:28;;;;;;;16.00;11.23;;;6.50;99.90;;;;;;4963148;28;20042;-77
2022/11/17 07:02:59;;;;;;;19.17;12.85;;;6.50;99.90;;;;;;4972665;28;20043;-76
2022/11/17 07:05:27;;;;;;;18.73;9.95;;;6.50;99.90;;;;;;4966494;28;20715;-77
2022/11/17 07:07:57;;;;;;;17.23;10.82;;;6.50;99.90;;;;;;4964268;28;20043;-77
2022/11/17 07:10:25;;;;;;;19.83;12.63;;;6.50;99.90;;;;;;4964473;28;20047;-76
2022/11/17 07:12:51;;;;;;;20.25;12.73;;;6.50;99.90;;;;;;4962494;28;20046;-77
2022/11/17 07:15:18;;;;;;;18.80;12.15;;;6.50;99.90;;;;;;4987052;28;20104;-77
2022/11/17 07:17:45;;;;;;;16.80;11.43;;;6.50;99.90;;;;;;4967642;28;20031;-77
2022/11/17 07:20:12;;;;;;;19.65;12.68;;;6.50;99.90;;;;;;4974671;28;20043;-79
2022/11/17 07:22:40;;;;;;;24.70;14.60;;;6.60;99.90;;;;;;4951461;28;20540;-79
2022/11/17 07:25:07;;;;;;;17.20;12.55;;;6.60;99.90;;;;;;4969187;28;20045;-77
2022/11/17 07:27:34;;;;;;;18.75;10.60;;;6.60;99.90;;;;;;4974723;28;20038;-77
2022/11/17 07:30:03;;;;;;;17.25;12.00;;;6.60;99.90;;;;;;4992835;28;20057;-76
2022/11/17 07:32:35;;;;;;;15.95;11.07;;;6.60;99.90;;;;;;4960197;28;20187;-77
2022/11/17 07:35:05;;;;;;;15.70;11.63;;;6.60;99.90;;;;;;4988357;28;20049;-76
2022/11/17 07:37:33;;;;;;;16.88;12.88;;;6.60;99.90;;;;;;4990051;28;20039;-76
2022/11/17 07:39:59;;;;;;;18.40;12.65;;;6.60;99.90;;;;;;4986015;28;20034;-76
2022/11/17 07:42:26;;;;;;;17.85;13.13;;;6.60;99.90;;;;;;4982045;28;20043;-77
2022/11/17 07:44:53;;;;;;;14.85;10.52;;;6.60;99.90;;;;;;4991507;28;20052;-76
2022/11/17 07:47:19;;;;;;;16.05;11.10;;;6.60;99.90;;;;;;4968916;28;20038;-76
2022/11/17 07:49:46;;;;;;;14.90;10.35;;;6.60;99.90;;;;;;4981102;28;20042;-76
2022/11/17 07:52:13;;;;;;;21.73;11.13;;;6.60;99.90;;;;;;4957870;28;20034;-75
2022/11/17 07:54:39;;;;;;;13.15;9.43;;;6.60;99.90;;;;;;4963454;28;20634;-76
2022/11/17 07:57:06;;;;;;;12.50;9.48;;;6.60;99.90;;;;;;4971013;28;20137;-75
2022/11/17 07:59:33;;;;;;;13.30;8.95;;;6.60;99.90;;;;;;4960889;28;20049;-75
2022/11/17 08:01:59;;;;;;;15.77;10.85;;;6.50;99.90;;;;;;4967143;28;20682;-76
2022/11/17 08:04:26;;;;;;;19.90;12.35;;;6.50;99.90;;;;;;4971499;28;20046;-76
2022/11/17 08:06:52;;;;;;;15.93;11.27;;;6.60;99.90;;;;;;4972782;28;20072;-75
2022/11/17 08:09:19;;;;;;;21.83;12.50;;;6.60;99.90;;;;;;4972383;28;20042;-77
2022/11/17 08:11:46;;;;;;;18.60;11.45;;;6.70;99.90;;;;;;4980721;28;20042;-76
2022/11/17 08:14:12;;;;;;;20.20;12.95;;;6.70;99.90;;;;;;4982773;28;20037;-75
2022/11/17 08:16:39;;;;;;;16.33;12.30;;;6.70;99.90;;;;;;4946557;28;20050;-76
2022/11/17 08:19:10;;;;;;;13.80;11.35;;;6.70;99.90;;;;;;4969680;28;20042;-76
2022/11/17 08:21:37;;;;;;;12.18;10.10;;;6.80;99.90;;;;;;4970115;28;20042;-76
2022/11/17 08:24:04;;;;;;;14.40;10.25;;;6.70;99.90;;;;;;4988110;28;20034;-76
2022/11/17 08:26:34;;;;;;;10.70;9.52;;;6.80;99.90;;;;;;4969004;28;20172;-76
2022/11/17 08:29:00;;;;;;;11.25;9.73;;;6.80;99.90;;;;;;4984486;28;20050;-76
2022/11/17 08:31:27;;;;;;;13.02;11.07;;;6.80;99.90;;;;;;4954196;28;20073;-77
2022/11/17 08:33:54;;;;;;;13.20;10.55;;;6.80;99.90;;;;;;4966719;28;20040;-77
2022/11/17 08:36:21;;;;;;;11.90;9.82;;;6.80;99.90;;;;;;4986665;28;20045;-77
2022/11/17 08:38:48;;;;;;;10.85;9.70;;;6.90;99.90;;;;;;4969372;28;20043;-76
2022/11/17 08:41:15;;;;;;;9.38;7.47;;;6.90;99.90;;;;;;4964050;28;20046;-77
2022/11/17 08:43:41;;;;;;;10.63;8.63;;;6.90;99.90;;;;;;4978700;28;20050;-76
2022/11/17 08:46:12;;;;;;;11.77;10.43;;;6.90;99.90;;;;;;4988738;28;20558;-77
2022/11/17 08:48:38;;;;;;;10.70;9.38;;;6.90;99.90;;;;;;4969752;28;20612;-76
2022/11/17 08:51:07;;;;;;;12.48;10.45;;;6.90;99.90;;;;;;4973765;28;20043;-76
2022/11/17 08:53:34;;;;;;;9.32;8.35;;;6.90;99.90;;;;;;4962120;28;20047;-77
2022/11/17 08:56:04;;;;;;;10.77;9.70;;;6.90;99.90;;;;;;4975640;28;20030;-76
2022/11/17 08:58:31;;;;;;;10.38;9.32;;;7.00;99.90;;;;;;4955068;28;20160;-76
2022/11/17 09:00:58;;;;;;;9.88;8.98;;;7.00;99.90;;;;;;4956297;28;20049;-76
2022/11/17 09:03:31;;;;;;;10.85;9.75;;;7.00;99.90;;;;;;4973574;28;20050;-76
2022/11/17 09:05:58;;;;;;;11.85;10.65;;;7.00;99.90;;;;;;4971167;28;20042;-75
2022/11/17 09:08:25;;;;;;;10.13;9.18;;;7.00;99.90;;;;;;4998327;28;20046;-76
2022/11/17 09:11:13;;;;;;;10.10;8.60;;;7.00;99.90;;;;;;4977220;28;20038;-76
2022/11/17 09:13:40;;;;;;;11.57;10.43;;;7.00;99.90;;;;;;4974426;28;20421;-76
2022/11/17 09:16:09;;;;;;;10.70;9.52;;;7.10;99.90;;;;;;4992540;28;20034;-75
2022/11/17 09:18:37;;;;;;;9.90;8.88;;;7.00;99.90;;;;;;4962960;28;20042;-76
2022/11/17 09:21:10;;;;;;;9.10;8.20;;;7.00;99.90;;;;;;4987621;28;20047;-77
2022/11/17 09:23:37;;;;;;;23.80;15.88;;;7.00;99.90;;;;;;4963978;28;20050;-76
2022/11/17 09:26:06;;;;;;;12.43;11.13;;;7.00;99.90;;;;;;4959855;28;20059;-77
2022/11/17 09:28:33;;;;;;;12.77;10.43;;;7.00;99.90;;;;;;4979105;28;20041;-77
2022/11/17 09:31:09;;;;;;;14.65;12.00;;;7.00;99.90;;;;;;4967960;28;20043;-77
2022/11/17 09:33:36;;;;;;;;;;;7.00;99.90;;;;;;4997813;28;20049;-77
2022/11/17 09:36:03;;;;;;;13.70;10.02;;;7.00;99.90;;;;;;4984180;28;20491;-77
2022/11/17 09:38:30;;;;;;;9.27;8.38;;;7.00;99.90;;;;;;4978360;28;20059;-77
2022/11/17 09:40:58;;;;;;;10.05;9.05;;;7.00;99.90;;;;;;4982999;28;20516;-77
2022/11/17 09:43:32;;;;;;;11.02;10.00;;;7.00;99.90;;;;;;4978779;28;20060;-77
2022/11/17 09:46:16;;;;;;;12.68;11.25;;;7.10;99.90;;;;;;4973004;28;20049;-77
2022/11/17 09:48:51;;;;;;;11.43;9.18;;;7.10;99.90;;;;;;4956450;28;20266;-77
2022/11/17 09:51:21;;;;;;;12.93;11.63;;;7.10;99.90;;;;;;4982508;28;20046;-77
2022/11/17 09:54:03;;;;;;;14.98;11.05;;;7.10;99.90;;;;;;4960171;28;20052;-76
2022/11/17 09:56:29;;;;;;;12.55;11.13;;;7.10;99.90;;;;;;4993080;28;20451;-77
2022/11/17 09:59:10;;;;;;;12.02;9.95;;;7.20;99.90;;;;;;4979546;28;20038;-76
2022/11/17 10:01:37;;;;;;;10.27;8.00;;;7.20;99.90;;;;;;4991335;28;20042;-76
2022/11/17 10:04:11;;;;;;;9.27;8.00;;;7.20;99.90;;;;;;4980247;28;20405;-76
2022/11/17 10:06:41;;;;;;;12.95;11.55;;;7.20;99.90;;;;;;4981950;28;20038;-77
2022/11/17 10:09:10;;;;;;;14.38;11.68;;;7.30;99.90;;;;;;4983934;28;20054;-77
2022/11/17 10:11:40;;;;;;;11.90;10.70;;;7.40;99.90;;;;;;4989056;28;20104;-77
2022/11/17 10:14:13;;;;;;;9.45;8.50;;;7.40;99.90;;;;;;4971181;28;20038;-77
2022/11/17 10:16:57;;;;;;;17.00;15.10;;;7.40;99.90;;;;;;4988656;28;20042;-77
2022/11/17 10:19:25;;;;;;;13.27;11.82;;;7.50;99.90;;;;;;4975519;28;20499;-77
2022/11/17 10:22:11;;;;;;;14.93;12.43;;;7.60;99.90;;;;;;4971726;28;20042;-78
2022/11/17 10:24:37;;;;;;;10.23;9.23;;;7.60;99.90;;;;;;4982465;28;20045;-76
2022/11/17 10:27:17;;;;;;;10.20;9.30;;;7.60;99.90;;;;;;4982931;28;20513;-77
2022/11/17 10:30:06;;;;;;;11.40;10.07;;;7.70;99.90;;;;;;4973873;28;20055;-77
2022/11/17 10:32:45;;;;;;;11.43;9.43;;;7.80;99.90;;;;;;4969093;28;20523;-77
2022/11/17 10:35:16;;;;;;;23.10;15.32;;;7.80;99.90;;;;;;4984338;28;20043;-77
2022/11/17 10:37:58;;;;;;;14.40;11.57;;;7.80;99.90;;;;;;4974654;28;20042;-77
2022/11/17 10:40:50;;;;;;;10.38;9.43;;;7.80;99.90;;;;;;4988352;28;20725;-77
2022/11/17 10:43:31;;;;;;;12.15;10.98;;;7.90;99.90;;;;;;4976030;28;20050;-77
2022/11/17 10:46:12;;;;;;;14.25;11.70;;;7.90;99.90;;;;;;4985709;28;20500;-77
2022/11/17 10:49:03;;;;;;;12.52;11.32;;;7.90;99.90;;;;;;4982285;28;20042;-78
2022/11/17 10:51:32;;;;;;;16.38;13.80;;;7.90;99.90;;;;;;4972923;28;20350;-77
2022/11/17 10:54:20;;;;;;;11.00;10.00;;;8.00;99.90;;;;;;4966337;28;20647;-77
2022/11/17 10:56:50;;;;;;;11.90;10.70;;;8.00;99.90;;;;;;4963798;28;20070;-77
2022/11/17 10:59:22;;;;;;;11.70;10.57;;;8.00;99.90;;;;;;4968920;28;20092;-77
2022/11/17 11:01:54;;;;;;;10.98;10.07;;;8.10;99.90;;;;;;4992201;28;20080;-77
2022/11/17 11:04:38;;;;;;;11.43;10.35;;;8.10;99.90;;;;;;4965931;28;20530;-77
2022/11/17 11:07:04;;;;;;;11.70;10.60;;;8.00;99.90;;;;;;4993691;28;20136;-77
2022/11/17 11:09:32;;;;;;;10.82;9.82;;;8.00;99.90;;;;;;4972999;28;20511;-78
2022/11/17 11:12:06;;;;;;;12.85;11.50;;;8.10;99.90;;;;;;4961174;28;20041;-78
2022/11/17 11:14:40;;;;;;;13.15;11.73;;;8.10;99.90;;;;;;4991516;28;20042;-77
2022/11/17 11:17:12;;;;;;;14.65;13.15;;;8.10;99.90;;;;;;4979145;28;20042;-78
2022/11/17 11:19:40;;;;;;;27.10;19.52;;;8.00;99.90;;;;;;4967554;28;20540;-78
2022/11/17 11:22:34;;;;;;;17.73;13.48;;;8.10;99.90;;;;;;4970659;28;20046;-78
2022/11/17 11:25:45;;;;;;;13.80;10.80;;;8.30;99.90;;;;;;4982500;28;20050;-78
2022/11/17 11:28:35;;;;;;;12.60;11.32;;;8.30;99.90;;;;;;4987403;28;20049;-77
2022/11/17 11:32:05;;;;;;;14.13;11.60;;;8.40;99.90;;;;;;4974903;28;20053;-77
2022/11/17 11:34:54;;;;;;;10.32;9.30;;;8.30;99.90;;;;;;4927271;28;20080;-77
2022/11/17 11:37:30;;;;;;;14.00;11.30;;;8.10;99.90;;;;;;4908725;28;20146;-77
2022/11/17 11:40:09;;;;;;;25.27;17.00;;;8.00;99.90;;;;;;4941194;28;20448;-77
2022/11/17 11:42:57;;;;;;;9.55;8.57;;;8.00;99.90;;;;;;4971854;28;20114;-77
2022/11/17 11:45:43;;;;;;;17.50;11.93;;;8.00;99.90;;;;;;4973190;28;20860;-78
2022/11/17 11:48:09;;;;;;;;;;;8.00;99.90;;;;;;4968244;28;20046;-77
2022/11/17 11:50:46;;;;;;;29.55;17.83;;;8.00;99.90;;;;;;4973149;28;20015;-77
2022/11/17 11:53:21;;;;;;;19.08;13.77;;;8.10;99.90;;;;;;4985256;28;20046;-77
2022/11/17 11:55:51;;;;;;;14.50;11.13;;;8.00;99.90;;;;;;4971645;28;20042;-77
2022/11/17 11:58:23;;;;;;;10.05;8.85;;;8.10;99.90;;;;;;4970437;28;20136;-77
2022/11/17 12:01:05;;;;;;;11.73;10.00;;;8.10;99.90;;;;;;4975636;28;20050;-77
2022/11/17 12:04:21;;;;;;;23.23;15.45;;;8.20;99.90;;;;;;4972157;28;20046;-77
2022/11/17 12:07:10;;;;;;;23.48;17.33;;;8.30;99.90;;;;;;4939561;28;20050;-76
2022/11/17 12:10:14;;;;;;;11.57;10.43;;;8.40;99.90;;;;;;4983253;28;20410;-76
2022/11/17 12:12:45;;;;;;;12.07;10.90;;;8.40;99.90;;;;;;4952255;28;20038;-77
2022/11/17 12:15:34;;;;;;;10.93;9.98;;;8.50;99.90;;;;;;4981721;28;20045;-76
2022/11/17 12:18:04;;;;;;;14.40;12.45;;;8.40;99.90;;;;;;4965408;28;20049;-78
2022/11/17 12:20:47;;;;;;;13.73;12.30;;;8.40;99.90;;;;;;4972146;28;20109;-76
2022/11/17 12:23:41;;;;;;;11.38;10.40;;;8.50;99.90;;;;;;4987731;28;20752;-77
2022/11/17 12:26:22;;;;;;;13.23;12.02;;;8.50;99.90;;;;;;4987321;28;20042;-77
2022/11/17 12:29:08;;;;;;;15.77;14.00;;;8.40;99.90;;;;;;4989032;28;20759;-77
2022/11/17 12:31:43;;;;;;;14.30;12.80;;;8.50;99.90;;;;;;4972122;28;20598;-77
2022/11/17 12:34:21;;;;;;;;;;;8.60;99.90;;;;;;4968541;28;20064;-77
2022/11/17 12:37:17;;;;;;;13.70;10.70;;;8.70;99.90;;;;;;4996547;28;19921;-77
2022/11/17 12:39:50;;;;;;;13.75;12.35;;;8.60;99.90;;;;;;4984599;28;20048;-77
2022/11/17 12:42:17;;;;;;;13.77;12.23;;;8.60;99.90;;;;;;4970777;28;20296;-77
2022/11/17 12:44:46;;;;;;;12.07;10.95;;;8.60;99.90;;;;;;4952164;28;20051;-77
2022/11/17 12:47:27;;;;;;;12.27;11.18;;;8.60;99.90;;;;;;4972277;28;20542;-77
2022/11/17 12:50:29;;;;;;;12.70;11.32;;;8.70;99.90;;;;;;4956579;28;20049;-77
2022/11/17 12:53:08;;;;;;;17.05;15.25;;;8.80;99.90;;;;;;4970036;28;20050;-77
2022/11/17 12:55:34;;;;;;;10.48;9.38;;;8.80;99.90;;;;;;4972242;28;20039;-77
2022/11/17 12:58:17;;;;;;;10.05;9.18;;;8.90;99.90;;;;;;4964406;28;20041;-78
2022/11/17 13:01:00;;;;;;;10.45;9.55;;;8.80;99.90;;;;;;4972566;28;20039;-77
2022/11/17 13:03:46;;;;;;;10.95;9.95;;;8.60;99.90;;;;;;4990104;28;20072;-77
2022/11/17 13:06:15;;;;;;;10.93;9.93;;;8.80;99.90;;;;;;4992721;28;20691;-77
2022/11/17 13:09:10;;;;;;;12.32;11.13;;;8.80;99.90;;;;;;4960061;28;20104;-78
2022/11/17 13:11:36;;;;;;;;;;;9.00;99.90;;;;;;4965222;28;20057;-77
2022/11/17 13:14:15;;;;;;;12.02;10.82;;;9.00;99.90;;;;;;4971987;28;19928;-77
2022/11/17 13:16:48;;;;;;;11.65;10.55;;;8.90;99.90;;;;;;4983386;28;20059;-77
2022/11/17 13:19:35;;;;;;;12.52;11.50;;;8.90;99.90;;;;;;4989845;28;20494;-76
2022/11/17 13:22:12;;;;;;;23.40;20.90;;;8.90;99.90;;;;;;4950727;28;20046;-78
2022/11/17 13:24:44;;;;;;;24.13;21.55;;;8.90;99.90;;;;;;4967981;28;20077;-77
2022/11/17 13:27:27;;;;;;;11.63;10.57;;;8.90;99.90;;;;;;4985802;28;20133;-77
2022/11/17 13:30:22;;;;;;;12.55;11.20;;;8.80;99.90;;;;;;4990369;28;20513;-77
2022/11/17 13:32:49;;;;;;;13.15;11.90;;;8.80;99.90;;;;;;4989749;28;20129;-77
2022/11/17 13:35:20;;;;;;;18.27;13.82;;;8.80;99.90;;;;;;4971066;28;20422;-77